sensor_id;sensor_type;location;lat;lon;timestamp;P1;durP1;ratioP1;P2;durP2;ratioP2
50745;SDS011;36711;51.972;21.204;2022-10-31T00:02:14;39.00;;;21.70;;
50745;SDS011;36711;51.972;21.204;2022-10-31T00:04:42;37.60;;;22.10;;
50745;SDS011;36711;51.972;21.204;2022-10-31T00:07:11;35.10;;;19.50;;
50745;SDS011;36711;51.972;21.204;2022-10-31T00:09:40;36.00;;;19.20;;
50745;SDS011;36711;51.972;21.204;2022-10-31T00:12:08;35.30;;;19.40;;
50745;SDS011;36711;51.972;21.204;2022-10-31T00:14:37;31.20;;;18.00;;
50745;SDS011;36711;51.972;21.204;2022-10-31T00:17:05;36.50;;;19.70;;
50745;SDS011;36711;51.972;21.204;2022-10-31T00:19:34;40.10;;;22.30;;
50745;SDS011;36711;51.972;21.204;2022-10-31T00:22:03;42.00;;;22.70;;
50745;SDS011;36711;51.972;21.204;2022-10-31T00:24:31;37.10;;;21.40;;
50745;SDS011;36711;51.972;21.204;2022-10-31T00:27:00;43.80;;;23.50;;
50745;SDS011;36711;51.972;21.204;2022-10-31T00:29:29;39.20;;;20.70;;
50745;SDS011;36711;51.972;21.204;2022-10-31T00:31:57;38.00;;;19.80;;
50745;SDS011;36711;51.972;21.204;2022-10-31T00:34:26;43.90;;;21.50;;
50745;SDS011;36711;51.972;21.204;2022-10-31T00:36:54;36.60;;;20.50;;
50745;SDS011;36711;51.972;21.204;2022-10-31T00:39:23;44.80;;;21.20;;
50745;SDS011;36711;51.972;21.204;2022-10-31T00:41:52;40.50;;;22.70;;
50745;SDS011;36711;51.972;21.204;2022-10-31T00:44:20;42.00;;;23.50;;
50745;SDS011;36711;51.972;21.204;2022-10-31T00:46:49;40.50;;;22.10;;
50745;SDS011;36711;51.972;21.204;2022-10-31T00:49:17;39.50;;;23.10;;
50745;SDS011;36711;51.972;21.204;2022-10-31T00:51:46;36.70;;;20.60;;
50745;SDS011;36711;51.972;21.204;2022-10-31T00:54:14;39.50;;;20.10;;
50745;SDS011;36711;51.972;21.204;2022-10-31T00:56:43;38.70;;;21.00;;
50745;SDS011;36711;51.972;21.204;2022-10-31T00:59:11;36.10;;;19.10;;
50745;SDS011;36711;51.972;21.204;2022-10-31T01:01:40;46.40;;;21.10;;
50745;SDS011;36711;51.972;21.204;2022-10-31T01:04:09;46.80;;;21.60;;
50745;SDS011;36711;51.972;21.204;2022-10-31T01:06:37;42.60;;;22.50;;
50745;SDS011;36711;51.972;21.204;2022-10-31T01:09:06;39.40;;;22.30;;
50745;SDS011;36711;51.972;21.204;2022-10-31T01:11:35;42.90;;;22.60;;
50745;SDS011;36711;51.972;21.204;2022-10-31T01:14:03;40.60;;;21.00;;
50745;SDS011;36711;51.972;21.204;2022-10-31T01:16:32;44.80;;;20.20;;
50745;SDS011;36711;51.972;21.204;2022-10-31T01:19:01;39.60;;;21.10;;
50745;SDS011;36711;51.972;21.204;2022-10-31T01:21:29;36.80;;;19.90;;
50745;SDS011;36711;51.972;21.204;2022-10-31T01:23:58;40.50;;;20.40;;
50745;SDS011;36711;51.972;21.204;2022-10-31T01:26:28;45.10;;;22.80;;
50745;SDS011;36711;51.972;21.204;2022-10-31T01:29:02;40.90;;;23.50;;
50745;SDS011;36711;51.972;21.204;2022-10-31T01:31:33;46.70;;;25.60;;
50745;SDS011;36711;51.972;21.204;2022-10-31T01:34:02;48.70;;;27.30;;
50745;SDS011;36711;51.972;21.204;2022-10-31T01:36:35;44.70;;;23.90;;
50745;SDS011;36711;51.972;21.204;2022-10-31T01:41:33;45.10;;;23.60;;
50745;SDS011;36711;51.972;21.204;2022-10-31T01:49:21;38.60;;;22.30;;
50745;SDS011;36711;51.972;21.204;2022-10-31T01:51:56;45.10;;;24.10;;
50745;SDS011;36711;51.972;21.204;2022-10-31T01:54:27;48.50;;;24.10;;
50745;SDS011;36711;51.972;21.204;2022-10-31T01:56:57;43.80;;;23.20;;
50745;SDS011;36711;51.972;21.204;2022-10-31T01:59:27;44.10;;;21.90;;
50745;SDS011;36711;51.972;21.204;2022-10-31T02:01:56;38.60;;;21.50;;
50745;SDS011;36711;51.972;21.204;2022-10-31T02:04:25;43.10;;;23.30;;
50745;SDS011;36711;51.972;21.204;2022-10-31T02:07:05;41.90;;;22.70;;
50745;SDS011;36711;51.972;21.204;2022-10-31T02:09:35;45.80;;;21.50;;
50745;SDS011;36711;51.972;21.204;2022-10-31T02:12:05;37.50;;;22.30;;
50745;SDS011;36711;51.972;21.204;2022-10-31T02:14:34;48.90;;;24.90;;
50745;SDS011;36711;51.972;21.204;2022-10-31T02:17:03;43.60;;;24.20;;
50745;SDS011;36711;51.972;21.204;2022-10-31T02:22:21;38.20;;;21.30;;
50745;SDS011;36711;51.972;21.204;2022-10-31T02:30:20;42.50;;;21.00;;
50745;SDS011;36711;51.972;21.204;2022-10-31T02:32:52;35.30;;;20.50;;
50745;SDS011;36711;51.972;21.204;2022-10-31T02:38:00;38.70;;;22.00;;
50745;SDS011;36711;51.972;21.204;2022-10-31T02:40:35;43.00;;;22.10;;
50745;SDS011;36711;51.972;21.204;2022-10-31T02:43:11;40.50;;;22.10;;
50745;SDS011;36711;51.972;21.204;2022-10-31T02:48:17;41.70;;;21.70;;
50745;SDS011;36711;51.972;21.204;2022-10-31T02:50:54;37.70;;;20.90;;
50745;SDS011;36711;51.972;21.204;2022-10-31T02:53:23;35.40;;;20.60;;
50745;SDS011;36711;51.972;21.204;2022-10-31T02:56:06;38.10;;;20.20;;
50745;SDS011;36711;51.972;21.204;2022-10-31T02:58:38;39.90;;;19.40;;
50745;SDS011;36711;51.972;21.204;2022-10-31T03:03:40;38.20;;;21.40;;
50745;SDS011;36711;51.972;21.204;2022-10-31T03:06:17;38.10;;;21.30;;
50745;SDS011;36711;51.972;21.204;2022-10-31T03:11:31;32.20;;;17.40;;
50745;SDS011;36711;51.972;21.204;2022-10-31T03:14:06;35.40;;;19.60;;
50745;SDS011;36711;51.972;21.204;2022-10-31T03:16:47;33.30;;;18.60;;
50745;SDS011;36711;51.972;21.204;2022-10-31T03:19:21;35.90;;;17.70;;
50745;SDS011;36711;51.972;21.204;2022-10-31T03:22:39;31.40;;;17.40;;
50745;SDS011;36711;51.972;21.204;2022-10-31T03:24:40;30.10;;;17.20;;
50745;SDS011;36711;51.972;21.204;2022-10-31T03:27:10;28.40;;;17.40;;
50745;SDS011;36711;51.972;21.204;2022-10-31T03:29:41;32.70;;;19.20;;
50745;SDS011;36711;51.972;21.204;2022-10-31T03:32:13;34.50;;;19.60;;
50745;SDS011;36711;51.972;21.204;2022-10-31T03:34:43;29.10;;;16.50;;
50745;SDS011;36711;51.972;21.204;2022-10-31T03:37:14;31.30;;;17.90;;
50745;SDS011;36711;51.972;21.204;2022-10-31T03:39:43;34.40;;;18.30;;
50745;SDS011;36711;51.972;21.204;2022-10-31T03:42:18;32.10;;;17.00;;
50745;SDS011;36711;51.972;21.204;2022-10-31T03:44:59;35.30;;;16.90;;
50745;SDS011;36711;51.972;21.204;2022-10-31T03:47:30;26.30;;;16.10;;
50745;SDS011;36711;51.972;21.204;2022-10-31T03:49:59;30.40;;;18.60;;
50745;SDS011;36711;51.972;21.204;2022-10-31T03:52:45;31.60;;;18.50;;
50745;SDS011;36711;51.972;21.204;2022-10-31T03:55:17;31.80;;;17.50;;
50745;SDS011;36711;51.972;21.204;2022-10-31T04:00:33;34.80;;;18.50;;
50745;SDS011;36711;51.972;21.204;2022-10-31T04:05:33;33.80;;;19.10;;
50745;SDS011;36711;51.972;21.204;2022-10-31T04:08:03;31.80;;;17.80;;
50745;SDS011;36711;51.972;21.204;2022-10-31T04:10:33;29.60;;;19.00;;
50745;SDS011;36711;51.972;21.204;2022-10-31T04:13:04;34.40;;;19.50;;
50745;SDS011;36711;51.972;21.204;2022-10-31T04:15:34;35.50;;;20.00;;
50745;SDS011;36711;51.972;21.204;2022-10-31T04:18:04;32.50;;;19.40;;
50745;SDS011;36711;51.972;21.204;2022-10-31T04:20:34;29.30;;;16.90;;
50745;SDS011;36711;51.972;21.204;2022-10-31T04:23:03;30.70;;;16.60;;
50745;SDS011;36711;51.972;21.204;2022-10-31T04:25:32;24.20;;;14.90;;
50745;SDS011;36711;51.972;21.204;2022-10-31T04:28:01;27.60;;;17.90;;
50745;SDS011;36711;51.972;21.204;2022-10-31T04:30:30;33.60;;;18.50;;
50745;SDS011;36711;51.972;21.204;2022-10-31T04:32:58;35.30;;;19.30;;
50745;SDS011;36711;51.972;21.204;2022-10-31T04:35:28;35.60;;;20.60;;
50745;SDS011;36711;51.972;21.204;2022-10-31T04:37:56;32.40;;;19.10;;
50745;SDS011;36711;51.972;21.204;2022-10-31T04:40:25;34.60;;;18.80;;
50745;SDS011;36711;51.972;21.204;2022-10-31T04:42:54;29.10;;;18.10;;
50745;SDS011;36711;51.972;21.204;2022-10-31T04:45:22;27.60;;;17.50;;
50745;SDS011;36711;51.972;21.204;2022-10-31T04:47:51;27.50;;;16.90;;
50745;SDS011;36711;51.972;21.204;2022-10-31T04:50:19;28.70;;;15.70;;
50745;SDS011;36711;51.972;21.204;2022-10-31T04:52:48;25.40;;;15.20;;
50745;SDS011;36711;51.972;21.204;2022-10-31T04:55:16;32.00;;;17.60;;
50745;SDS011;36711;51.972;21.204;2022-10-31T04:57:46;36.30;;;18.60;;
50745;SDS011;36711;51.972;21.204;2022-10-31T05:00:16;33.70;;;18.50;;
50745;SDS011;36711;51.972;21.204;2022-10-31T05:02:48;29.90;;;18.40;;
50745;SDS011;36711;51.972;21.204;2022-10-31T05:05:18;29.40;;;17.10;;
50745;SDS011;36711;51.972;21.204;2022-10-31T05:07:47;28.70;;;16.10;;
50745;SDS011;36711;51.972;21.204;2022-10-31T05:10:17;27.60;;;15.80;;
50745;SDS011;36711;51.972;21.204;2022-10-31T05:12:47;29.60;;;15.30;;
50745;SDS011;36711;51.972;21.204;2022-10-31T05:15:16;25.80;;;14.50;;
50745;SDS011;36711;51.972;21.204;2022-10-31T05:17:45;24.40;;;15.30;;
50745;SDS011;36711;51.972;21.204;2022-10-31T05:20:15;26.00;;;14.60;;
50745;SDS011;36711;51.972;21.204;2022-10-31T05:22:44;24.20;;;14.50;;
50745;SDS011;36711;51.972;21.204;2022-10-31T05:25:13;24.30;;;14.40;;
50745;SDS011;36711;51.972;21.204;2022-10-31T05:27:43;27.30;;;16.00;;
50745;SDS011;36711;51.972;21.204;2022-10-31T05:30:13;22.40;;;13.60;;
50745;SDS011;36711;51.972;21.204;2022-10-31T05:32:42;23.90;;;14.00;;
50745;SDS011;36711;51.972;21.204;2022-10-31T05:35:12;23.30;;;14.80;;
50745;SDS011;36711;51.972;21.204;2022-10-31T05:37:41;25.40;;;14.00;;
50745;SDS011;36711;51.972;21.204;2022-10-31T05:40:11;27.00;;;15.70;;
50745;SDS011;36711;51.972;21.204;2022-10-31T05:42:40;26.60;;;14.00;;
50745;SDS011;36711;51.972;21.204;2022-10-31T05:45:13;22.20;;;12.90;;
50745;SDS011;36711;51.972;21.204;2022-10-31T05:50:10;20.80;;;13.60;;
50745;SDS011;36711;51.972;21.204;2022-10-31T05:52:39;21.30;;;12.90;;
50745;SDS011;36711;51.972;21.204;2022-10-31T05:55:08;22.10;;;12.40;;
50745;SDS011;36711;51.972;21.204;2022-10-31T05:57:36;23.60;;;12.70;;
50745;SDS011;36711;51.972;21.204;2022-10-31T06:00:06;18.30;;;11.80;;
50745;SDS011;36711;51.972;21.204;2022-10-31T06:02:34;20.80;;;13.10;;
50745;SDS011;36711;51.972;21.204;2022-10-31T06:05:03;20.10;;;13.10;;
50745;SDS011;36711;51.972;21.204;2022-10-31T06:07:33;18.90;;;12.00;;
50745;SDS011;36711;51.972;21.204;2022-10-31T06:10:03;18.50;;;10.90;;
50745;SDS011;36711;51.972;21.204;2022-10-31T06:12:32;16.50;;;11.20;;
50745;SDS011;36711;51.972;21.204;2022-10-31T06:15:06;13.90;;;10.10;;
50745;SDS011;36711;51.972;21.204;2022-10-31T06:17:35;14.70;;;9.70;;
50745;SDS011;36711;51.972;21.204;2022-10-31T06:20:04;20.60;;;11.70;;
50745;SDS011;36711;51.972;21.204;2022-10-31T06:22:32;21.50;;;12.20;;
50745;SDS011;36711;51.972;21.204;2022-10-31T06:25:01;18.60;;;11.50;;
50745;SDS011;36711;51.972;21.204;2022-10-31T06:27:30;17.30;;;10.60;;
50745;SDS011;36711;51.972;21.204;2022-10-31T06:29:58;17.30;;;10.70;;
50745;SDS011;36711;51.972;21.204;2022-10-31T06:32:27;16.50;;;11.00;;
50745;SDS011;36711;51.972;21.204;2022-10-31T06:34:56;15.50;;;10.00;;
50745;SDS011;36711;51.972;21.204;2022-10-31T06:37:24;16.30;;;10.10;;
50745;SDS011;36711;51.972;21.204;2022-10-31T06:39:53;16.30;;;10.50;;
50745;SDS011;36711;51.972;21.204;2022-10-31T06:42:21;18.80;;;11.70;;
50745;SDS011;36711;51.972;21.204;2022-10-31T06:44:50;19.70;;;11.50;;
50745;SDS011;36711;51.972;21.204;2022-10-31T06:47:19;16.10;;;9.60;;
50745;SDS011;36711;51.972;21.204;2022-10-31T06:49:47;16.70;;;10.30;;
50745;SDS011;36711;51.972;21.204;2022-10-31T06:52:16;18.50;;;10.80;;
50745;SDS011;36711;51.972;21.204;2022-10-31T06:54:44;16.80;;;10.20;;
50745;SDS011;36711;51.972;21.204;2022-10-31T06:57:13;16.20;;;10.20;;
50745;SDS011;36711;51.972;21.204;2022-10-31T06:59:42;17.60;;;11.00;;
50745;SDS011;36711;51.972;21.204;2022-10-31T07:02:10;18.50;;;11.60;;
50745;SDS011;36711;51.972;21.204;2022-10-31T07:04:39;18.20;;;11.70;;
50745;SDS011;36711;51.972;21.204;2022-10-31T07:07:08;19.10;;;11.00;;
50745;SDS011;36711;51.972;21.204;2022-10-31T07:09:36;19.60;;;10.80;;
50745;SDS011;36711;51.972;21.204;2022-10-31T07:12:05;14.00;;;8.80;;
50745;SDS011;36711;51.972;21.204;2022-10-31T07:14:34;14.60;;;9.30;;
50745;SDS011;36711;51.972;21.204;2022-10-31T07:17:02;17.50;;;10.60;;
50745;SDS011;36711;51.972;21.204;2022-10-31T07:19:31;15.70;;;10.00;;
50745;SDS011;36711;51.972;21.204;2022-10-31T07:21:59;15.20;;;9.50;;
50745;SDS011;36711;51.972;21.204;2022-10-31T07:24:28;13.90;;;10.10;;
50745;SDS011;36711;51.972;21.204;2022-10-31T07:26:57;14.50;;;10.20;;
50745;SDS011;36711;51.972;21.204;2022-10-31T07:29:27;13.30;;;9.20;;
50745;SDS011;36711;51.972;21.204;2022-10-31T07:31:55;13.40;;;8.90;;
50745;SDS011;36711;51.972;21.204;2022-10-31T07:34:24;15.00;;;9.70;;
50745;SDS011;36711;51.972;21.204;2022-10-31T07:36:53;18.90;;;10.50;;
50745;SDS011;36711;51.972;21.204;2022-10-31T07:39:21;18.80;;;11.30;;
50745;SDS011;36711;51.972;21.204;2022-10-31T07:41:50;18.70;;;12.10;;
50745;SDS011;36711;51.972;21.204;2022-10-31T07:44:18;17.60;;;10.80;;
50745;SDS011;36711;51.972;21.204;2022-10-31T07:46:47;15.90;;;10.30;;
50745;SDS011;36711;51.972;21.204;2022-10-31T07:49:15;14.50;;;9.60;;
50745;SDS011;36711;51.972;21.204;2022-10-31T07:51:44;11.40;;;8.30;;
50745;SDS011;36711;51.972;21.204;2022-10-31T07:54:14;10.40;;;7.00;;
50745;SDS011;36711;51.972;21.204;2022-10-31T07:56:42;11.70;;;8.00;;
50745;SDS011;36711;51.972;21.204;2022-10-31T07:59:11;11.50;;;8.40;;
50745;SDS011;36711;51.972;21.204;2022-10-31T08:01:40;13.60;;;9.10;;
50745;SDS011;36711;51.972;21.204;2022-10-31T08:04:09;13.10;;;8.80;;
50745;SDS011;36711;51.972;21.204;2022-10-31T08:06:37;12.20;;;8.40;;
50745;SDS011;36711;51.972;21.204;2022-10-31T08:09:06;14.80;;;9.00;;
50745;SDS011;36711;51.972;21.204;2022-10-31T08:11:34;13.10;;;8.00;;
50745;SDS011;36711;51.972;21.204;2022-10-31T08:14:03;12.30;;;8.40;;
50745;SDS011;36711;51.972;21.204;2022-10-31T08:16:31;15.80;;;9.10;;
50745;SDS011;36711;51.972;21.204;2022-10-31T08:19:00;13.30;;;8.50;;
50745;SDS011;36711;51.972;21.204;2022-10-31T08:21:29;10.70;;;7.80;;
50745;SDS011;36711;51.972;21.204;2022-10-31T08:23:57;13.20;;;8.20;;
50745;SDS011;36711;51.972;21.204;2022-10-31T08:26:26;11.30;;;7.50;;
50745;SDS011;36711;51.972;21.204;2022-10-31T08:28:54;11.50;;;7.10;;
50745;SDS011;36711;51.972;21.204;2022-10-31T08:31:23;11.80;;;7.20;;
50745;SDS011;36711;51.972;21.204;2022-10-31T08:34:00;9.00;;;6.20;;
50745;SDS011;36711;51.972;21.204;2022-10-31T08:36:29;9.50;;;6.50;;
50745;SDS011;36711;51.972;21.204;2022-10-31T08:38:57;10.40;;;6.50;;
50745;SDS011;36711;51.972;21.204;2022-10-31T08:41:29;14.50;;;7.60;;
50745;SDS011;36711;51.972;21.204;2022-10-31T08:43:58;14.20;;;8.60;;
50745;SDS011;36711;51.972;21.204;2022-10-31T08:46:26;11.10;;;7.30;;
50745;SDS011;36711;51.972;21.204;2022-10-31T08:48:55;11.30;;;7.30;;
50745;SDS011;36711;51.972;21.204;2022-10-31T08:51:23;11.60;;;7.40;;
50745;SDS011;36711;51.972;21.204;2022-10-31T08:53:52;18.70;;;8.00;;
50745;SDS011;36711;51.972;21.204;2022-10-31T08:56:21;13.40;;;8.60;;
50745;SDS011;36711;51.972;21.204;2022-10-31T08:58:52;14.70;;;9.00;;
50745;SDS011;36711;51.972;21.204;2022-10-31T09:01:22;13.30;;;8.20;;
50745;SDS011;36711;51.972;21.204;2022-10-31T09:03:51;11.70;;;7.80;;
50745;SDS011;36711;51.972;21.204;2022-10-31T09:06:20;8.10;;;6.50;;
50745;SDS011;36711;51.972;21.204;2022-10-31T09:08:49;11.00;;;8.30;;
50745;SDS011;36711;51.972;21.204;2022-10-31T09:11:18;10.40;;;7.80;;
50745;SDS011;36711;51.972;21.204;2022-10-31T09:13:46;9.60;;;7.60;;
50745;SDS011;36711;51.972;21.204;2022-10-31T09:16:15;3.50;;;1.30;;
50745;SDS011;36711;51.972;21.204;2022-10-31T09:18:43;11.70;;;7.80;;
50745;SDS011;36711;51.972;21.204;2022-10-31T09:21:12;10.70;;;7.70;;
50745;SDS011;36711;51.972;21.204;2022-10-31T09:23:41;10.20;;;8.50;;
50745;SDS011;36711;51.972;21.204;2022-10-31T09:26:09;11.30;;;7.90;;
50745;SDS011;36711;51.972;21.204;2022-10-31T09:28:38;10.60;;;8.50;;
50745;SDS011;36711;51.972;21.204;2022-10-31T09:31:06;16.00;;;8.70;;
50745;SDS011;36711;51.972;21.204;2022-10-31T09:33:35;13.50;;;9.20;;
50745;SDS011;36711;51.972;21.204;2022-10-31T09:36:03;15.00;;;9.60;;
50745;SDS011;36711;51.972;21.204;2022-10-31T09:38:32;13.90;;;9.80;;
50745;SDS011;36711;51.972;21.204;2022-10-31T09:44:06;13.00;;;9.50;;
50745;SDS011;36711;51.972;21.204;2022-10-31T09:49:49;14.80;;;10.40;;
50745;SDS011;36711;51.972;21.204;2022-10-31T09:52:32;14.50;;;9.70;;
50745;SDS011;36711;51.972;21.204;2022-10-31T09:57:33;16.00;;;9.80;;
50745;SDS011;36711;51.972;21.204;2022-10-31T10:00:05;9.40;;;6.50;;
50745;SDS011;36711;51.972;21.204;2022-10-31T10:02:38;14.20;;;10.10;;
50745;SDS011;36711;51.972;21.204;2022-10-31T10:05:28;16.70;;;9.60;;
50745;SDS011;36711;51.972;21.204;2022-10-31T10:21:01;16.30;;;10.40;;
50745;SDS011;36711;51.972;21.204;2022-10-31T10:28:41;14.70;;;9.50;;
50745;SDS011;36711;51.972;21.204;2022-10-31T10:31:13;15.50;;;9.90;;
50745;SDS011;36711;51.972;21.204;2022-10-31T10:34:01;16.40;;;10.20;;
50745;SDS011;36711;51.972;21.204;2022-10-31T10:39:04;16.60;;;11.10;;
50745;SDS011;36711;51.972;21.204;2022-10-31T10:41:36;15.30;;;11.50;;
50745;SDS011;36711;51.972;21.204;2022-10-31T10:44:05;13.90;;;10.60;;
50745;SDS011;36711;51.972;21.204;2022-10-31T10:55:22;15.50;;;9.20;;
50745;SDS011;36711;51.972;21.204;2022-10-31T10:57:58;9.50;;;8.00;;
50745;SDS011;36711;51.972;21.204;2022-10-31T11:00:34;10.50;;;8.60;;
50745;SDS011;36711;51.972;21.204;2022-10-31T11:03:04;9.60;;;8.60;;
50745;SDS011;36711;51.972;21.204;2022-10-31T11:08:06;9.60;;;7.90;;
50745;SDS011;36711;51.972;21.204;2022-10-31T11:10:35;10.40;;;8.40;;
50745;SDS011;36711;51.972;21.204;2022-10-31T11:15:35;9.80;;;7.80;;
50745;SDS011;36711;51.972;21.204;2022-10-31T11:18:04;10.70;;;8.30;;
50745;SDS011;36711;51.972;21.204;2022-10-31T11:20:34;12.10;;;8.70;;
50745;SDS011;36711;51.972;21.204;2022-10-31T11:23:26;9.80;;;7.90;;
50745;SDS011;36711;51.972;21.204;2022-10-31T11:26:00;9.50;;;8.10;;
50745;SDS011;36711;51.972;21.204;2022-10-31T11:28:29;10.70;;;8.50;;
50745;SDS011;36711;51.972;21.204;2022-10-31T11:30:59;10.20;;;8.30;;
50745;SDS011;36711;51.972;21.204;2022-10-31T11:36:00;10.40;;;7.80;;
50745;SDS011;36711;51.972;21.204;2022-10-31T11:38:31;10.10;;;8.00;;
50745;SDS011;36711;51.972;21.204;2022-10-31T11:41:12;11.50;;;8.00;;
50745;SDS011;36711;51.972;21.204;2022-10-31T11:43:45;11.50;;;7.40;;
50745;SDS011;36711;51.972;21.204;2022-10-31T11:46:15;8.50;;;6.50;;
50745;SDS011;36711;51.972;21.204;2022-10-31T11:48:50;9.00;;;7.30;;
50745;SDS011;36711;51.972;21.204;2022-10-31T11:51:23;10.60;;;7.40;;
50745;SDS011;36711;51.972;21.204;2022-10-31T11:53:53;9.30;;;6.60;;
50745;SDS011;36711;51.972;21.204;2022-10-31T11:56:39;8.60;;;4.50;;
50745;SDS011;36711;51.972;21.204;2022-10-31T11:59:18;8.80;;;6.50;;
50745;SDS011;36711;51.972;21.204;2022-10-31T12:01:47;9.70;;;6.20;;
50745;SDS011;36711;51.972;21.204;2022-10-31T12:04:17;8.70;;;6.70;;
50745;SDS011;36711;51.972;21.204;2022-10-31T12:06:46;8.70;;;6.20;;
50745;SDS011;36711;51.972;21.204;2022-10-31T12:09:18;9.70;;;6.40;;
50745;SDS011;36711;51.972;21.204;2022-10-31T12:14:28;8.50;;;6.10;;
50745;SDS011;36711;51.972;21.204;2022-10-31T12:22:04;10.40;;;6.30;;
50745;SDS011;36711;51.972;21.204;2022-10-31T12:30:21;6.70;;;5.70;;
50745;SDS011;36711;51.972;21.204;2022-10-31T12:35:32;6.60;;;5.80;;
50745;SDS011;36711;51.972;21.204;2022-10-31T12:49:25;9.00;;;7.80;;
50745;SDS011;36711;51.972;21.204;2022-10-31T12:52:00;9.50;;;7.90;;
50745;SDS011;36711;51.972;21.204;2022-10-31T12:59:45;16.40;;;9.20;;
50745;SDS011;36711;51.972;21.204;2022-10-31T13:04:55;15.60;;;9.00;;
50745;SDS011;36711;51.972;21.204;2022-10-31T13:07:27;13.80;;;9.20;;
50745;SDS011;36711;51.972;21.204;2022-10-31T13:12:40;13.10;;;9.40;;
50745;SDS011;36711;51.972;21.204;2022-10-31T13:15:20;13.00;;;9.00;;
50745;SDS011;36711;51.972;21.204;2022-10-31T13:17:53;16.10;;;10.10;;
50745;SDS011;36711;51.972;21.204;2022-10-31T13:22:53;15.40;;;9.70;;
50745;SDS011;36711;51.972;21.204;2022-10-31T13:25:24;14.70;;;10.40;;
50745;SDS011;36711;51.972;21.204;2022-10-31T13:30:22;15.00;;;9.70;;
50745;SDS011;36711;51.972;21.204;2022-10-31T13:40:35;13.80;;;10.50;;
50745;SDS011;36711;51.972;21.204;2022-10-31T13:45:52;16.60;;;11.20;;
50745;SDS011;36711;51.972;21.204;2022-10-31T13:50:57;16.70;;;10.60;;
50745;SDS011;36711;51.972;21.204;2022-10-31T13:58:35;17.90;;;11.10;;
50745;SDS011;36711;51.972;21.204;2022-10-31T14:03:39;21.20;;;11.50;;
50745;SDS011;36711;51.972;21.204;2022-10-31T14:09:14;18.40;;;11.80;;
50745;SDS011;36711;51.972;21.204;2022-10-31T14:11:45;21.10;;;11.60;;
50745;SDS011;36711;51.972;21.204;2022-10-31T14:14:14;19.30;;;11.20;;
50745;SDS011;36711;51.972;21.204;2022-10-31T14:16:44;22.00;;;11.50;;
50745;SDS011;36711;51.972;21.204;2022-10-31T14:19:16;19.30;;;11.90;;
50745;SDS011;36711;51.972;21.204;2022-10-31T14:21:46;15.80;;;9.10;;
50745;SDS011;36711;51.972;21.204;2022-10-31T14:26:57;22.10;;;13.60;;
50745;SDS011;36711;51.972;21.204;2022-10-31T14:29:32;23.20;;;12.50;;
50745;SDS011;36711;51.972;21.204;2022-10-31T14:32:21;21.90;;;13.00;;
50745;SDS011;36711;51.972;21.204;2022-10-31T14:34:55;21.90;;;13.00;;
50745;SDS011;36711;51.972;21.204;2022-10-31T14:50:48;22.20;;;11.90;;
50745;SDS011;36711;51.972;21.204;2022-10-31T14:53:31;21.60;;;12.90;;
50745;SDS011;36711;51.972;21.204;2022-10-31T14:56:01;23.30;;;12.30;;
50745;SDS011;36711;51.972;21.204;2022-10-31T15:01:15;21.10;;;10.80;;
50745;SDS011;36711;51.972;21.204;2022-10-31T15:03:46;23.80;;;11.50;;
50745;SDS011;36711;51.972;21.204;2022-10-31T15:06:38;22.60;;;13.20;;
50745;SDS011;36711;51.972;21.204;2022-10-31T15:12:28;25.10;;;14.20;;
50745;SDS011;36711;51.972;21.204;2022-10-31T15:14:57;28.80;;;14.60;;
50745;SDS011;36711;51.972;21.204;2022-10-31T15:17:26;25.30;;;13.40;;
50745;SDS011;36711;51.972;21.204;2022-10-31T15:19:55;30.60;;;14.70;;
50745;SDS011;36711;51.972;21.204;2022-10-31T15:22:24;28.50;;;14.20;;
50745;SDS011;36711;51.972;21.204;2022-10-31T15:24:54;26.00;;;13.10;;
50745;SDS011;36711;51.972;21.204;2022-10-31T15:27:24;27.50;;;14.30;;
50745;SDS011;36711;51.972;21.204;2022-10-31T15:29:54;30.90;;;16.00;;
50745;SDS011;36711;51.972;21.204;2022-10-31T15:32:27;36.80;;;16.30;;
50745;SDS011;36711;51.972;21.204;2022-10-31T15:34:56;33.90;;;15.50;;
50745;SDS011;36711;51.972;21.204;2022-10-31T15:37:26;32.80;;;15.40;;
50745;SDS011;36711;51.972;21.204;2022-10-31T15:39:55;32.10;;;13.60;;
50745;SDS011;36711;51.972;21.204;2022-10-31T15:42:27;36.10;;;15.60;;
50745;SDS011;36711;51.972;21.204;2022-10-31T15:45:05;41.20;;;17.20;;
50745;SDS011;36711;51.972;21.204;2022-10-31T15:47:34;40.90;;;18.10;;
50745;SDS011;36711;51.972;21.204;2022-10-31T15:50:04;43.50;;;17.30;;
50745;SDS011;36711;51.972;21.204;2022-10-31T15:52:42;39.20;;;16.50;;
50745;SDS011;36711;51.972;21.204;2022-10-31T15:55:19;42.60;;;16.50;;
50745;SDS011;36711;51.972;21.204;2022-10-31T15:57:50;36.40;;;14.60;;
50745;SDS011;36711;51.972;21.204;2022-10-31T16:00:29;44.10;;;17.50;;
50745;SDS011;36711;51.972;21.204;2022-10-31T16:03:02;42.10;;;18.50;;
50745;SDS011;36711;51.972;21.204;2022-10-31T16:05:35;41.50;;;17.40;;
50745;SDS011;36711;51.972;21.204;2022-10-31T16:08:04;51.20;;;18.60;;
50745;SDS011;36711;51.972;21.204;2022-10-31T16:10:49;42.50;;;16.90;;
50745;SDS011;36711;51.972;21.204;2022-10-31T16:13:19;50.30;;;17.60;;
50745;SDS011;36711;51.972;21.204;2022-10-31T16:15:49;46.10;;;19.20;;
50745;SDS011;36711;51.972;21.204;2022-10-31T16:18:40;62.00;;;20.60;;
50745;SDS011;36711;51.972;21.204;2022-10-31T16:21:09;51.40;;;20.70;;
50745;SDS011;36711;51.972;21.204;2022-10-31T16:23:38;55.50;;;20.10;;
50745;SDS011;36711;51.972;21.204;2022-10-31T16:26:13;54.90;;;20.30;;
50745;SDS011;36711;51.972;21.204;2022-10-31T16:28:52;61.60;;;20.40;;
50745;SDS011;36711;51.972;21.204;2022-10-31T16:31:36;50.30;;;20.90;;
50745;SDS011;36711;51.972;21.204;2022-10-31T16:34:15;59.60;;;22.30;;
50745;SDS011;36711;51.972;21.204;2022-10-31T16:36:43;63.80;;;22.90;;
50745;SDS011;36711;51.972;21.204;2022-10-31T16:39:12;59.60;;;23.10;;
50745;SDS011;36711;51.972;21.204;2022-10-31T16:41:42;59.30;;;22.10;;
50745;SDS011;36711;51.972;21.204;2022-10-31T16:44:22;60.10;;;21.10;;
50745;SDS011;36711;51.972;21.204;2022-10-31T16:47:09;62.30;;;21.80;;
50745;SDS011;36711;51.972;21.204;2022-10-31T16:49:40;57.40;;;23.20;;
50745;SDS011;36711;51.972;21.204;2022-10-31T16:52:08;72.50;;;26.50;;
50745;SDS011;36711;51.972;21.204;2022-10-31T16:54:37;60.60;;;24.20;;
50745;SDS011;36711;51.972;21.204;2022-10-31T16:57:09;57.90;;;22.80;;
50745;SDS011;36711;51.972;21.204;2022-10-31T16:59:40;62.70;;;23.80;;
50745;SDS011;36711;51.972;21.204;2022-10-31T17:02:13;57.60;;;21.50;;
50745;SDS011;36711;51.972;21.204;2022-10-31T17:04:42;59.90;;;22.60;;
50745;SDS011;36711;51.972;21.204;2022-10-31T17:07:11;61.80;;;23.90;;
50745;SDS011;36711;51.972;21.204;2022-10-31T17:09:39;61.70;;;24.60;;
50745;SDS011;36711;51.972;21.204;2022-10-31T17:12:11;64.70;;;24.80;;
50745;SDS011;36711;51.972;21.204;2022-10-31T17:14:43;61.10;;;23.20;;
50745;SDS011;36711;51.972;21.204;2022-10-31T17:17:13;64.30;;;24.40;;
50745;SDS011;36711;51.972;21.204;2022-10-31T17:19:41;55.80;;;21.60;;
50745;SDS011;36711;51.972;21.204;2022-10-31T17:22:10;60.80;;;24.60;;
50745;SDS011;36711;51.972;21.204;2022-10-31T17:24:39;70.90;;;26.60;;